sensor_id;sensor_type;location;lat;lon;timestamp;temperature;humidity
37412;DHT22;23278;52.110;6.050;2023-07-02T00:01:46;18.00;96.00
37412;DHT22;23278;52.110;6.050;2023-07-02T00:04:13;18.00;96.30
37412;DHT22;23278;52.110;6.050;2023-07-02T00:06:45;18.10;96.70
37412;DHT22;23278;52.110;6.050;2023-07-02T00:09:11;18.00;96.70
37412;DHT22;23278;52.110;6.050;2023-07-02T00:11:38;18.10;97.00
37412;DHT22;23278;52.110;6.050;2023-07-02T00:14:08;18.00;97.30
37412;DHT22;23278;52.110;6.050;2023-07-02T00:16:39;18.10;97.50
37412;DHT22;23278;52.110;6.050;2023-07-02T00:19:06;18.10;97.70
37412;DHT22;23278;52.110;6.050;2023-07-02T00:21:32;18.10;98.00
37412;DHT22;23278;52.110;6.050;2023-07-02T00:23:59;18.10;98.20
37412;DHT22;23278;52.110;6.050;2023-07-02T00:26:27;18.10;98.30
37412;DHT22;23278;52.110;6.050;2023-07-02T00:28:54;18.10;98.50
37412;DHT22;23278;52.110;6.050;2023-07-02T00:31:20;18.10;98.70
37412;DHT22;23278;52.110;6.050;2023-07-02T00:33:47;18.00;99.40
37412;DHT22;23278;52.110;6.050;2023-07-02T00:36:13;17.90;99.90
37412;DHT22;23278;52.110;6.050;2023-07-02T00:38:46;17.80;99.90
37412;DHT22;23278;52.110;6.050;2023-07-02T00:41:13;17.70;99.90
37412;DHT22;23278;52.110;6.050;2023-07-02T00:43:39;17.60;99.90
37412;DHT22;23278;52.110;6.050;2023-07-02T00:46:18;17.50;99.90
37412;DHT22;23278;52.110;6.050;2023-07-02T00:48:50;17.40;99.90
37412;DHT22;23278;52.110;6.050;2023-07-02T00:51:19;17.30;99.90
37412;DHT22;23278;52.110;6.050;2023-07-02T00:53:47;17.30;99.90
37412;DHT22;23278;52.110;6.050;2023-07-02T00:56:13;17.30;99.90
37412;DHT22;23278;52.110;6.050;2023-07-02T00:58:41;17.30;99.90
37412;DHT22;23278;52.110;6.050;2023-07-02T01:01:31;17.30;99.70
37412;DHT22;23278;52.110;6.050;2023-07-02T01:04:05;17.30;99.70
37412;DHT22;23278;52.110;6.050;2023-07-02T01:06:35;17.30;99.70
37412;DHT22;23278;52.110;6.050;2023-07-02T01:09:05;17.30;99.70
37412;DHT22;23278;52.110;6.050;2023-07-02T01:11:41;17.30;99.90
37412;DHT22;23278;52.110;6.050;2023-07-02T01:14:15;17.20;99.90
37412;DHT22;23278;52.110;6.050;2023-07-02T01:16:43;17.10;99.90
37412;DHT22;23278;52.110;6.050;2023-07-02T01:21:59;17.10;99.90
37412;DHT22;23278;52.110;6.050;2023-07-02T01:24:26;17.00;99.90
37412;DHT22;23278;52.110;6.050;2023-07-02T01:26:53;17.00;99.90
37412;DHT22;23278;52.110;6.050;2023-07-02T01:29:20;16.90;99.90
37412;DHT22;23278;52.110;6.050;2023-07-02T01:31:47;16.90;99.90
37412;DHT22;23278;52.110;6.050;2023-07-02T01:34:14;16.90;99.90
37412;DHT22;23278;52.110;6.050;2023-07-02T01:36:41;16.80;99.90
37412;DHT22;23278;52.110;6.050;2023-07-02T01:39:07;16.80;99.90
37412;DHT22;23278;52.110;6.050;2023-07-02T01:41:42;16.70;99.90
37412;DHT22;23278;52.110;6.050;2023-07-02T01:44:08;16.70;99.90
37412;DHT22;23278;52.110;6.050;2023-07-02T01:46:34;16.60;99.90
37412;DHT22;23278;52.110;6.050;2023-07-02T01:49:00;16.60;99.90
37412;DHT22;23278;52.110;6.050;2023-07-02T01:51:26;16.50;99.90
37412;DHT22;23278;52.110;6.050;2023-07-02T01:53:52;16.50;99.90
37412;DHT22;23278;52.110;6.050;2023-07-02T01:56:18;16.40;99.90
37412;DHT22;23278;52.110;6.050;2023-07-02T01:58:45;16.40;99.90
37412;DHT22;23278;52.110;6.050;2023-07-02T02:01:10;16.30;99.90
37412;DHT22;23278;52.110;6.050;2023-07-02T02:03:36;16.20;99.90
37412;DHT22;23278;52.110;6.050;2023-07-02T02:06:02;16.10;99.90
37412;DHT22;23278;52.110;6.050;2023-07-02T02:08:28;16.00;99.90
37412;DHT22;23278;52.110;6.050;2023-07-02T02:10:54;15.90;99.90
37412;DHT22;23278;52.110;6.050;2023-07-02T02:13:21;15.80;99.90
37412;DHT22;23278;52.110;6.050;2023-07-02T02:15:46;15.70;99.90
37412;DHT22;23278;52.110;6.050;2023-07-02T02:18:12;15.50;99.90
37412;DHT22;23278;52.110;6.050;2023-07-02T02:20:39;15.50;99.90
37412;DHT22;23278;52.110;6.050;2023-07-02T02:23:05;15.40;99.90
37412;DHT22;23278;52.110;6.050;2023-07-02T02:25:30;15.30;99.90
37412;DHT22;23278;52.110;6.050;2023-07-02T02:27:56;15.20;99.90
37412;DHT22;23278;52.110;6.050;2023-07-02T02:30:22;15.10;99.90
37412;DHT22;23278;52.110;6.050;2023-07-02T02:32:49;15.10;99.90
37412;DHT22;23278;52.110;6.050;2023-07-02T02:35:15;15.00;99.90
37412;DHT22;23278;52.110;6.050;2023-07-02T02:37:41;14.90;99.90
37412;DHT22;23278;52.110;6.050;2023-07-02T02:40:08;14.80;99.90
37412;DHT22;23278;52.110;6.050;2023-07-02T02:42:38;14.80;99.90
37412;DHT22;23278;52.110;6.050;2023-07-02T02:45:05;14.80;99.90
37412;DHT22;23278;52.110;6.050;2023-07-02T02:47:31;14.80;99.90
37412;DHT22;23278;52.110;6.050;2023-07-02T02:49:57;14.70;99.90
37412;DHT22;23278;52.110;6.050;2023-07-02T02:52:23;14.70;99.90
37412;DHT22;23278;52.110;6.050;2023-07-02T02:54:50;14.70;99.90
37412;DHT22;23278;52.110;6.050;2023-07-02T02:57:18;14.60;99.90
37412;DHT22;23278;52.110;6.050;2023-07-02T02:59:44;14.60;99.90
37412;DHT22;23278;52.110;6.050;2023-07-02T03:02:10;14.60;99.90
37412;DHT22;23278;52.110;6.050;2023-07-02T03:04:36;14.70;99.90
37412;DHT22;23278;52.110;6.050;2023-07-02T03:07:06;14.70;99.90
37412;DHT22;23278;52.110;6.050;2023-07-02T03:09:33;14.70;99.90
37412;DHT22;23278;52.110;6.050;2023-07-02T03:11:59;14.60;99.90
37412;DHT22;23278;52.110;6.050;2023-07-02T03:14:25;14.50;99.90
37412;DHT22;23278;52.110;6.050;2023-07-02T03:16:51;14.50;99.90
37412;DHT22;23278;52.110;6.050;2023-07-02T03:19:17;14.50;99.90
37412;DHT22;23278;52.110;6.050;2023-07-02T03:21:45;14.50;99.90
37412;DHT22;23278;52.110;6.050;2023-07-02T03:24:11;14.60;99.90
37412;DHT22;23278;52.110;6.050;2023-07-02T03:26:44;14.60;99.90
37412;DHT22;23278;52.110;6.050;2023-07-02T03:29:11;14.70;99.90
37412;DHT22;23278;52.110;6.050;2023-07-02T03:31:37;14.70;99.90
37412;DHT22;23278;52.110;6.050;2023-07-02T03:34:08;14.70;99.90
37412;DHT22;23278;52.110;6.050;2023-07-02T03:36:35;14.70;99.90
37412;DHT22;23278;52.110;6.050;2023-07-02T03:39:02;14.70;99.90
37412;DHT22;23278;52.110;6.050;2023-07-02T03:41:28;14.70;99.90
37412;DHT22;23278;52.110;6.050;2023-07-02T03:43:54;14.70;99.90
37412;DHT22;23278;52.110;6.050;2023-07-02T03:46:20;14.70;99.90
37412;DHT22;23278;52.110;6.050;2023-07-02T03:48:46;14.70;99.90
37412;DHT22;23278;52.110;6.050;2023-07-02T03:51:12;14.60;99.90
37412;DHT22;23278;52.110;6.050;2023-07-02T03:53:40;14.60;99.90
37412;DHT22;23278;52.110;6.050;2023-07-02T03:56:06;14.50;99.90
37412;DHT22;23278;52.110;6.050;2023-07-02T03:58:32;14.50;99.90
37412;DHT22;23278;52.110;6.050;2023-07-02T04:00:59;14.50;99.90
37412;DHT22;23278;52.110;6.050;2023-07-02T04:03:25;14.50;99.90
37412;DHT22;23278;52.110;6.050;2023-07-02T04:05:51;14.50;99.90
37412;DHT22;23278;52.110;6.050;2023-07-02T04:08:17;14.40;99.90
37412;DHT22;23278;52.110;6.050;2023-07-02T04:10:43;14.40;99.90
37412;DHT22;23278;52.110;6.050;2023-07-02T04:13:09;14.40;99.90
37412;DHT22;23278;52.110;6.050;2023-07-02T04:15:35;14.40;99.90
37412;DHT22;23278;52.110;6.050;2023-07-02T04:18:01;14.40;99.90
37412;DHT22;23278;52.110;6.050;2023-07-02T04:20:27;14.30;99.90
37412;DHT22;23278;52.110;6.050;2023-07-02T04:22:55;14.30;99.90
37412;DHT22;23278;52.110;6.050;2023-07-02T04:25:21;14.20;99.90
37412;DHT22;23278;52.110;6.050;2023-07-02T04:27:47;14.30;99.90
37412;DHT22;23278;52.110;6.050;2023-07-02T04:30:13;14.40;99.90
37412;DHT22;23278;52.110;6.050;2023-07-02T04:32:40;14.50;99.90
37412;DHT22;23278;52.110;6.050;2023-07-02T04:35:09;14.50;99.90
37412;DHT22;23278;52.110;6.050;2023-07-02T04:37:35;14.50;99.90
37412;DHT22;23278;52.110;6.050;2023-07-02T04:40:02;14.50;99.90
37412;DHT22;23278;52.110;6.050;2023-07-02T04:42:31;14.50;99.90
37412;DHT22;23278;52.110;6.050;2023-07-02T04:44:57;14.50;99.90
37412;DHT22;23278;52.110;6.050;2023-07-02T04:47:29;14.40;99.90
37412;DHT22;23278;52.110;6.050;2023-07-02T04:49:55;14.40;99.90
37412;DHT22;23278;52.110;6.050;2023-07-02T04:52:21;14.40;99.90
37412;DHT22;23278;52.110;6.050;2023-07-02T04:54:46;14.40;99.90
37412;DHT22;23278;52.110;6.050;2023-07-02T04:57:12;14.40;99.90
37412;DHT22;23278;52.110;6.050;2023-07-02T04:59:41;14.40;99.90
37412;DHT22;23278;52.110;6.050;2023-07-02T05:02:08;14.40;99.90
37412;DHT22;23278;52.110;6.050;2023-07-02T05:04:35;14.40;99.90
37412;DHT22;23278;52.110;6.050;2023-07-02T05:07:01;14.40;99.90
37412;DHT22;23278;52.110;6.050;2023-07-02T05:09:27;14.50;99.90
37412;DHT22;23278;52.110;6.050;2023-07-02T05:11:53;14.50;99.90
37412;DHT22;23278;52.110;6.050;2023-07-02T05:14:19;14.50;99.90
37412;DHT22;23278;52.110;6.050;2023-07-02T05:16:45;14.60;99.90
37412;DHT22;23278;52.110;6.050;2023-07-02T05:19:11;14.60;99.90
37412;DHT22;23278;52.110;6.050;2023-07-02T05:21:37;14.70;99.90
37412;DHT22;23278;52.110;6.050;2023-07-02T05:24:03;14.70;99.90
37412;DHT22;23278;52.110;6.050;2023-07-02T05:26:29;14.80;99.90
37412;DHT22;23278;52.110;6.050;2023-07-02T05:28:55;14.80;99.90
37412;DHT22;23278;52.110;6.050;2023-07-02T05:31:22;14.90;99.90
37412;DHT22;23278;52.110;6.050;2023-07-02T05:33:48;14.90;99.90
37412;DHT22;23278;52.110;6.050;2023-07-02T05:36:14;15.00;99.90
37412;DHT22;23278;52.110;6.050;2023-07-02T05:38:40;15.10;99.90
37412;DHT22;23278;52.110;6.050;2023-07-02T05:41:06;15.20;99.90
37412;DHT22;23278;52.110;6.050;2023-07-02T05:43:32;15.30;99.90
37412;DHT22;23278;52.110;6.050;2023-07-02T05:45:58;15.50;99.80
37412;DHT22;23278;52.110;6.050;2023-07-02T05:48:27;15.60;99.50
37412;DHT22;23278;52.110;6.050;2023-07-02T05:50:53;15.60;99.50
37412;DHT22;23278;52.110;6.050;2023-07-02T05:53:20;15.60;99.30
37412;DHT22;23278;52.110;6.050;2023-07-02T05:55:45;15.70;99.20
37412;DHT22;23278;52.110;6.050;2023-07-02T05:58:12;15.70;98.80
37412;DHT22;23278;52.110;6.050;2023-07-02T06:00:38;15.80;98.90
37412;DHT22;23278;52.110;6.050;2023-07-02T06:03:07;15.80;98.70
37412;DHT22;23278;52.110;6.050;2023-07-02T06:05:33;15.80;98.60
37412;DHT22;23278;52.110;6.050;2023-07-02T06:07:59;15.80;98.30
37412;DHT22;23278;52.110;6.050;2023-07-02T06:10:25;15.90;97.80
37412;DHT22;23278;52.110;6.050;2023-07-02T06:12:51;15.90;97.70
37412;DHT22;23278;52.110;6.050;2023-07-02T06:15:17;16.00;97.50
37412;DHT22;23278;52.110;6.050;2023-07-02T06:17:43;16.00;97.40
37412;DHT22;23278;52.110;6.050;2023-07-02T06:20:10;16.10;97.40
37412;DHT22;23278;52.110;6.050;2023-07-02T06:22:36;16.10;97.30
37412;DHT22;23278;52.110;6.050;2023-07-02T06:25:02;16.10;97.20
37412;DHT22;23278;52.110;6.050;2023-07-02T06:27:28;16.20;97.20
37412;DHT22;23278;52.110;6.050;2023-07-02T06:29:54;16.20;97.00
37412;DHT22;23278;52.110;6.050;2023-07-02T06:32:20;16.30;96.50
37412;DHT22;23278;52.110;6.050;2023-07-02T06:34:46;16.30;96.20
37412;DHT22;23278;52.110;6.050;2023-07-02T06:37:12;16.30;95.60
37412;DHT22;23278;52.110;6.050;2023-07-02T06:39:38;16.40;95.60
37412;DHT22;23278;52.110;6.050;2023-07-02T06:42:04;16.40;95.60
37412;DHT22;23278;52.110;6.050;2023-07-02T06:44:30;16.50;95.90
37412;DHT22;23278;52.110;6.050;2023-07-02T06:46:56;16.60;95.70
37412;DHT22;23278;52.110;6.050;2023-07-02T06:49:22;16.60;95.50
37412;DHT22;23278;52.110;6.050;2023-07-02T06:51:48;16.70;94.90
37412;DHT22;23278;52.110;6.050;2023-07-02T06:54:14;16.70;94.40
37412;DHT22;23278;52.110;6.050;2023-07-02T06:56:40;16.80;93.80
37412;DHT22;23278;52.110;6.050;2023-07-02T06:59:06;16.90;93.60
37412;DHT22;23278;52.110;6.050;2023-07-02T07:01:32;16.90;93.40
37412;DHT22;23278;52.110;6.050;2023-07-02T07:03:58;17.00;93.60
37412;DHT22;23278;52.110;6.050;2023-07-02T07:06:26;17.20;93.50
37412;DHT22;23278;52.110;6.050;2023-07-02T07:08:52;17.40;93.00
37412;DHT22;23278;52.110;6.050;2023-07-02T07:11:18;17.60;92.80
37412;DHT22;23278;52.110;6.050;2023-07-02T07:13:44;17.90;92.20
37412;DHT22;23278;52.110;6.050;2023-07-02T07:16:10;18.10;91.00
37412;DHT22;23278;52.110;6.050;2023-07-02T07:18:36;18.20;90.80
37412;DHT22;23278;52.110;6.050;2023-07-02T07:21:02;18.20;90.30
37412;DHT22;23278;52.110;6.050;2023-07-02T07:23:28;18.20;89.20
37412;DHT22;23278;52.110;6.050;2023-07-02T07:25:54;18.20;89.40
37412;DHT22;23278;52.110;6.050;2023-07-02T07:28:20;18.30;88.70
37412;DHT22;23278;52.110;6.050;2023-07-02T07:30:46;18.50;87.60
37412;DHT22;23278;52.110;6.050;2023-07-02T07:33:12;18.50;87.50
37412;DHT22;23278;52.110;6.050;2023-07-02T07:35:38;18.50;86.70
37412;DHT22;23278;52.110;6.050;2023-07-02T07:38:04;18.60;84.90
37412;DHT22;23278;52.110;6.050;2023-07-02T07:40:30;18.60;84.30
37412;DHT22;23278;52.110;6.050;2023-07-02T07:42:56;18.70;82.90
37412;DHT22;23278;52.110;6.050;2023-07-02T07:45:22;18.70;80.70
37412;DHT22;23278;52.110;6.050;2023-07-02T07:47:48;18.70;80.90
37412;DHT22;23278;52.110;6.050;2023-07-02T07:50:14;18.80;82.20
37412;DHT22;23278;52.110;6.050;2023-07-02T07:52:41;19.00;81.60
37412;DHT22;23278;52.110;6.050;2023-07-02T07:55:07;19.00;78.80
37412;DHT22;23278;52.110;6.050;2023-07-02T07:57:35;19.10;78.00
37412;DHT22;23278;52.110;6.050;2023-07-02T08:00:04;19.00;78.60
37412;DHT22;23278;52.110;6.050;2023-07-02T08:02:43;18.90;79.20
37412;DHT22;23278;52.110;6.050;2023-07-02T08:05:09;19.00;79.50
37412;DHT22;23278;52.110;6.050;2023-07-02T08:07:35;19.00;78.50
37412;DHT22;23278;52.110;6.050;2023-07-02T08:10:01;18.90;78.70
37412;DHT22;23278;52.110;6.050;2023-07-02T08:12:30;18.90;78.20
37412;DHT22;23278;52.110;6.050;2023-07-02T08:14:56;18.80;78.70
37412;DHT22;23278;52.110;6.050;2023-07-02T08:17:22;18.80;78.70
37412;DHT22;23278;52.110;6.050;2023-07-02T08:19:48;18.80;79.10
37412;DHT22;23278;52.110;6.050;2023-07-02T08:22:14;19.10;76.70
37412;DHT22;23278;52.110;6.050;2023-07-02T08:24:40;19.30;71.20
37412;DHT22;23278;52.110;6.050;2023-07-02T08:27:06;19.30;71.20
37412;DHT22;23278;52.110;6.050;2023-07-02T08:29:33;19.30;71.70
37412;DHT22;23278;52.110;6.050;2023-07-02T08:31:59;19.40;71.50
37412;DHT22;23278;52.110;6.050;2023-07-02T08:34:25;19.40;71.50
37412;DHT22;23278;52.110;6.050;2023-07-02T08:36:51;19.50;72.10
37412;DHT22;23278;52.110;6.050;2023-07-02T08:39:20;19.80;71.90
37412;DHT22;23278;52.110;6.050;2023-07-02T08:41:47;20.00;70.40
37412;DHT22;23278;52.110;6.050;2023-07-02T08:44:17;20.00;69.20
37412;DHT22;23278;52.110;6.050;2023-07-02T08:46:45;20.10;66.40
37412;DHT22;23278;52.110;6.050;2023-07-02T08:49:12;20.00;66.30
37412;DHT22;23278;52.110;6.050;2023-07-02T08:51:39;19.90;67.80
37412;DHT22;23278;52.110;6.050;2023-07-02T08:54:05;19.80;66.90
37412;DHT22;23278;52.110;6.050;2023-07-02T08:56:31;19.70;64.90
37412;DHT22;23278;52.110;6.050;2023-07-02T08:58:57;19.60;64.30
37412;DHT22;23278;52.110;6.050;2023-07-02T09:01:23;19.80;64.40
37412;DHT22;23278;52.110;6.050;2023-07-02T09:03:49;20.10;63.90
37412;DHT22;23278;52.110;6.050;2023-07-02T09:06:17;20.40;61.40
37412;DHT22;23278;52.110;6.050;2023-07-02T09:08:43;20.50;60.60
37412;DHT22;23278;52.110;6.050;2023-07-02T09:11:11;20.40;60.40
37412;DHT22;23278;52.110;6.050;2023-07-02T09:13:50;20.30;61.90
37412;DHT22;23278;52.110;6.050;2023-07-02T09:16:26;20.30;61.60
37412;DHT22;23278;52.110;6.050;2023-07-02T09:19:10;20.50;59.80
37412;DHT22;23278;52.110;6.050;2023-07-02T09:21:46;20.80;57.10
37412;DHT22;23278;52.110;6.050;2023-07-02T09:24:21;20.80;56.40
37412;DHT22;23278;52.110;6.050;2023-07-02T09:26:50;20.90;56.50
37412;DHT22;23278;52.110;6.050;2023-07-02T09:29:28;21.00;55.90
37412;DHT22;23278;52.110;6.050;2023-07-02T09:31:58;21.00;55.90
37412;DHT22;23278;52.110;6.050;2023-07-02T09:34:31;21.30;56.50
37412;DHT22;23278;52.110;6.050;2023-07-02T09:36:59;21.50;56.20
37412;DHT22;23278;52.110;6.050;2023-07-02T09:39:29;21.60;55.40
37412;DHT22;23278;52.110;6.050;2023-07-02T09:41:57;21.20;54.50
37412;DHT22;23278;52.110;6.050;2023-07-02T09:44:29;20.90;54.70
37412;DHT22;23278;52.110;6.050;2023-07-02T09:47:02;20.90;54.20
37412;DHT22;23278;52.110;6.050;2023-07-02T09:49:36;21.20;52.30
37412;DHT22;23278;52.110;6.050;2023-07-02T09:52:04;21.60;49.60
37412;DHT22;23278;52.110;6.050;2023-07-02T09:54:31;21.80;50.20
37412;DHT22;23278;52.110;6.050;2023-07-02T09:56:58;22.50;50.20
37412;DHT22;23278;52.110;6.050;2023-07-02T09:59:25;23.30;49.30
37412;DHT22;23278;52.110;6.050;2023-07-02T10:01:51;23.60;47.70
37412;DHT22;23278;52.110;6.050;2023-07-02T10:04:19;23.40;46.20
37412;DHT22;23278;52.110;6.050;2023-07-02T10:06:55;23.10;47.20
37412;DHT22;23278;52.110;6.050;2023-07-02T10:09:42;22.90;48.10
37412;DHT22;23278;52.110;6.050;2023-07-02T10:12:19;22.70;49.00
37412;DHT22;23278;52.110;6.050;2023-07-02T10:14:47;23.10;49.00
37412;DHT22;23278;52.110;6.050;2023-07-02T10:17:28;24.10;47.50
37412;DHT22;23278;52.110;6.050;2023-07-02T10:20:00;25.30;45.20
37412;DHT22;23278;52.110;6.050;2023-07-02T10:22:45;25.80;43.50
37412;DHT22;23278;52.110;6.050;2023-07-02T10:25:11;25.50;43.40
37412;DHT22;23278;52.110;6.050;2023-07-02T10:27:42;24.80;44.20
37412;DHT22;23278;52.110;6.050;2023-07-02T10:30:09;24.10;44.80
37412;DHT22;23278;52.110;6.050;2023-07-02T10:32:37;23.60;45.40
37412;DHT22;23278;52.110;6.050;2023-07-02T10:35:16;24.60;44.10
37412;DHT22;23278;52.110;6.050;2023-07-02T10:37:43;26.40;42.60
37412;DHT22;23278;52.110;6.050;2023-07-02T10:40:10;27.10;39.60
37412;DHT22;23278;52.110;6.050;2023-07-02T10:42:50;26.30;40.60
37412;DHT22;23278;52.110;6.050;2023-07-02T10:45:17;25.50;41.00
37412;DHT22;23278;52.110;6.050;2023-07-02T10:47:43;25.80;40.80
37412;DHT22;23278;52.110;6.050;2023-07-02T10:50:20;26.30;39.80
37412;DHT22;23278;52.110;6.050;2023-07-02T10:52:47;26.00;39.20
37412;DHT22;23278;52.110;6.050;2023-07-02T10:55:25;27.10;38.80
37412;DHT22;23278;52.110;6.050;2023-07-02T10:58:08;28.90;36.30
37412;DHT22;23278;52.110;6.050;2023-07-02T11:00:45;30.10;34.60
37412;DHT22;23278;52.110;6.050;2023-07-02T11:03:19;30.40;33.90
37412;DHT22;23278;52.110;6.050;2023-07-02T11:05:46;30.50;34.20
37412;DHT22;23278;52.110;6.050;2023-07-02T11:08:12;30.10;34.30
37412;DHT22;23278;52.110;6.050;2023-07-02T11:10:38;29.30;34.30
37412;DHT22;23278;52.110;6.050;2023-07-02T11:13:15;29.70;34.20
37412;DHT22;23278;52.110;6.050;2023-07-02T11:15:42;29.30;34.40
37412;DHT22;23278;52.110;6.050;2023-07-02T11:18:12;28.80;35.30
37412;DHT22;23278;52.110;6.050;2023-07-02T11:20:40;28.40;35.30
37412;DHT22;23278;52.110;6.050;2023-07-02T11:23:24;29.40;34.90
37412;DHT22;23278;52.110;6.050;2023-07-02T11:26:01;31.00;33.30
37412;DHT22;23278;52.110;6.050;2023-07-02T11:28:30;32.60;32.50
37412;DHT22;23278;52.110;6.050;2023-07-02T11:30:57;34.20;31.40
37412;DHT22;23278;52.110;6.050;2023-07-02T11:33:37;35.40;30.70
37412;DHT22;23278;52.110;6.050;2023-07-02T11:36:05;36.00;29.90
37412;DHT22;23278;52.110;6.050;2023-07-02T11:38:32;33.80;30.70
37412;DHT22;23278;52.110;6.050;2023-07-02T11:40:58;32.20;32.20
37412;DHT22;23278;52.110;6.050;2023-07-02T11:43:25;31.40;31.80
37412;DHT22;23278;52.110;6.050;2023-07-02T11:45:52;30.00;33.00
37412;DHT22;23278;52.110;6.050;2023-07-02T11:48:18;29.30;33.50
37412;DHT22;23278;52.110;6.050;2023-07-02T11:50:44;30.50;32.70
37412;DHT22;23278;52.110;6.050;2023-07-02T11:53:09;31.90;31.10
37412;DHT22;23278;52.110;6.050;2023-07-02T11:55:36;33.40;30.30
37412;DHT22;23278;52.110;6.050;2023-07-02T11:58:03;33.90;30.40
37412;DHT22;23278;52.110;6.050;2023-07-02T12:00:28;32.70;31.30
37412;DHT22;23278;52.110;6.050;2023-07-02T12:02:55;31.90;32.60
37412;DHT22;23278;52.110;6.050;2023-07-02T12:05:21;30.70;33.90
37412;DHT22;23278;52.110;6.050;2023-07-02T12:07:47;29.80;34.80
37412;DHT22;23278;52.110;6.050;2023-07-02T12:10:13;29.50;35.10
37412;DHT22;23278;52.110;6.050;2023-07-02T12:12:39;29.30;35.70
37412;DHT22;23278;52.110;6.050;2023-07-02T12:15:05;29.60;35.10
37412;DHT22;23278;52.110;6.050;2023-07-02T12:17:31;30.30;33.90
37412;DHT22;23278;52.110;6.050;2023-07-02T12:19:58;31.10;32.80
37412;DHT22;23278;52.110;6.050;2023-07-02T12:22:23;33.00;31.60
37412;DHT22;23278;52.110;6.050;2023-07-02T12:24:50;33.00;31.80
37412;DHT22;23278;52.110;6.050;2023-07-02T12:27:16;31.50;32.50
37412;DHT22;23278;52.110;6.050;2023-07-02T12:29:42;29.70;33.60
37412;DHT22;23278;52.110;6.050;2023-07-02T12:32:08;30.00;33.40
37412;DHT22;23278;52.110;6.050;2023-07-02T12:34:34;32.50;32.00
37412;DHT22;23278;52.110;6.050;2023-07-02T12:37:00;34.70;30.40
37412;DHT22;23278;52.110;6.050;2023-07-02T12:39:26;35.70;29.10
37412;DHT22;23278;52.110;6.050;2023-07-02T12:41:52;33.80;29.80
37412;DHT22;23278;52.110;6.050;2023-07-02T12:44:18;32.00;31.30
37412;DHT22;23278;52.110;6.050;2023-07-02T12:46:44;30.90;32.80
37412;DHT22;23278;52.110;6.050;2023-07-02T12:49:10;31.40;32.40
37412;DHT22;23278;52.110;6.050;2023-07-02T12:51:36;30.80;32.50
37412;DHT22;23278;52.110;6.050;2023-07-02T12:54:02;30.00;33.10
37412;DHT22;23278;52.110;6.050;2023-07-02T12:56:28;29.60;33.20
37412;DHT22;23278;52.110;6.050;2023-07-02T12:58:54;31.00;31.50
37412;DHT22;23278;52.110;6.050;2023-07-02T13:01:20;32.80;30.50
37412;DHT22;23278;52.110;6.050;2023-07-02T13:03:47;35.10;29.50
37412;DHT22;23278;52.110;6.050;2023-07-02T13:06:13;36.90;28.60
37412;DHT22;23278;52.110;6.050;2023-07-02T13:08:40;37.70;27.90
37412;DHT22;23278;52.110;6.050;2023-07-02T13:11:07;38.20;28.00
37412;DHT22;23278;52.110;6.050;2023-07-02T13:13:35;36.60;28.30
37412;DHT22;23278;52.110;6.050;2023-07-02T13:16:03;36.60;28.30
37412;DHT22;23278;52.110;6.050;2023-07-02T13:18:30;37.30;27.80
37412;DHT22;23278;52.110;6.050;2023-07-02T13:20:56;37.90;27.60
37412;DHT22;23278;52.110;6.050;2023-07-02T13:23:22;38.30;27.60
37412;DHT22;23278;52.110;6.050;2023-07-02T13:25:48;38.20;27.70
37412;DHT22;23278;52.110;6.050;2023-07-02T13:28:13;39.10;27.60
37412;DHT22;23278;52.110;6.050;2023-07-02T13:30:39;38.70;27.20
37412;DHT22;23278;52.110;6.050;2023-07-02T13:33:05;37.30;27.80
37412;DHT22;23278;52.110;6.050;2023-07-02T13:35:31;35.90;28.50
37412;DHT22;23278;52.110;6.050;2023-07-02T13:37:57;35.80;28.60
37412;DHT22;23278;52.110;6.050;2023-07-02T13:40:25;35.10;28.90
37412;DHT22;23278;52.110;6.050;2023-07-02T13:42:51;35.30;28.70
37412;DHT22;23278;52.110;6.050;2023-07-02T13:45:17;33.60;29.10
37412;DHT22;23278;52.110;6.050;2023-07-02T13:47:43;31.80;30.60
37412;DHT22;23278;52.110;6.050;2023-07-02T13:50:10;30.60;31.90
37412;DHT22;23278;52.110;6.050;2023-07-02T13:52:36;29.60;32.60
37412;DHT22;23278;52.110;6.050;2023-07-02T13:55:03;29.50;32.70
37412;DHT22;23278;52.110;6.050;2023-07-02T13:57:29;30.20;32.50
37412;DHT22;23278;52.110;6.050;2023-07-02T13:59:55;30.00;32.60
37412;DHT22;23278;52.110;6.050;2023-07-02T14:02:23;29.60;32.20
37412;DHT22;23278;52.110;6.050;2023-07-02T14:04:49;30.80;31.10
37412;DHT22;23278;52.110;6.050;2023-07-02T14:07:17;31.80;30.40
37412;DHT22;23278;52.110;6.050;2023-07-02T14:09:43;30.80;31.00
37412;DHT22;23278;52.110;6.050;2023-07-02T14:12:09;29.60;32.10
37412;DHT22;23278;52.110;6.050;2023-07-02T14:14:35;29.30;32.60
37412;DHT22;23278;52.110;6.050;2023-07-02T14:17:02;30.60;31.90
37412;DHT22;23278;52.110;6.050;2023-07-02T14:19:28;33.00;30.00
37412;DHT22;23278;52.110;6.050;2023-07-02T14:21:54;34.10;29.80
37412;DHT22;23278;52.110;6.050;2023-07-02T14:24:20;32.70;30.40
37412;DHT22;23278;52.110;6.050;2023-07-02T14:26:46;31.10;31.50
37412;DHT22;23278;52.110;6.050;2023-07-02T14:29:12;29.80;32.50
37412;DHT22;23278;52.110;6.050;2023-07-02T14:31:38;28.90;33.30
37412;DHT22;23278;52.110;6.050;2023-07-02T14:34:04;28.40;33.70
37412;DHT22;23278;52.110;6.050;2023-07-02T14:36:30;28.00;34.40
37412;DHT22;23278;52.110;6.050;2023-07-02T14:38:56;27.80;34.60
37412;DHT22;23278;52.110;6.050;2023-07-02T14:41:22;28.90;33.60
37412;DHT22;23278;52.110;6.050;2023-07-02T14:43:48;29.00;33.90
37412;DHT22;23278;52.110;6.050;2023-07-02T14:46:14;29.40;33.60
37412;DHT22;23278;52.110;6.050;2023-07-02T14:48:40;29.60;32.80
37412;DHT22;23278;52.110;6.050;2023-07-02T14:51:06;30.20;32.50
37412;DHT22;23278;52.110;6.050;2023-07-02T14:53:33;30.00;32.60
37412;DHT22;23278;52.110;6.050;2023-07-02T14:56:01;29.90;33.00
37412;DHT22;23278;52.110;6.050;2023-07-02T14:58:28;29.60;33.00
37412;DHT22;23278;52.110;6.050;2023-07-02T15:00:55;28.70;33.60
37412;DHT22;23278;52.110;6.050;2023-07-02T15:03:23;28.00;34.20
37412;DHT22;23278;52.110;6.050;2023-07-02T15:05:50;27.50;34.90
37412;DHT22;23278;52.110;6.050;2023-07-02T15:08:17;28.90;34.00
37412;DHT22;23278;52.110;6.050;2023-07-02T15:10:50;31.50;32.00
37412;DHT22;23278;52.110;6.050;2023-07-02T15:13:16;33.50;30.80
37412;DHT22;23278;52.110;6.050;2023-07-02T15:15:44;34.30;29.90
37412;DHT22;23278;52.110;6.050;2023-07-02T15:18:10;32.80;30.70
37412;DHT22;23278;52.110;6.050;2023-07-02T15:20:37;31.00;32.00
37412;DHT22;23278;52.110;6.050;2023-07-02T15:23:03;29.70;33.00
37412;DHT22;23278;52.110;6.050;2023-07-02T15:25:32;28.60;34.20
37412;DHT22;23278;52.110;6.050;2023-07-02T15:27:58;29.30;33.50
37412;DHT22;23278;52.110;6.050;2023-07-02T15:30:24;29.80;33.20
37412;DHT22;23278;52.110;6.050;2023-07-02T15:32:50;30.00;33.20
37412;DHT22;23278;52.110;6.050;2023-07-02T15:35:16;30.90;31.40